Time;durP1;ratioP1;P1;durP2;ratioP2;P2;SDS_P1;SDS_P2;PMS_P1;PMS_P2;Temp;Humidity;BMP_temperature;BMP_pressure;BME280_temperature;BME280_humidity;BME280_pressure;Samples;Min_cycle;Max_cycle;Signal;HPM_P1;HPM_P2
2022/04/21 00:02:09;;;;;;;0.80;0.80;;;;;;;;;;5109546;27;20673;-55
2022/04/21 00:04:56;;;;;;;1.00;1.00;;;;;;;;;;5119559;27;20359;-56
2022/04/21 00:07:47;;;;;;;0.90;0.90;;;;;;;;;;5127089;27;20291;-55
2022/04/21 00:10:34;;;;;;;0.80;0.80;;;;;;;;;;5102327;27;20567;-56
2022/04/21 00:13:21;;;;;;;0.80;0.70;;;;;;;;;;5126385;27;20229;-55
2022/04/21 00:16:08;;;;;;;0.90;0.90;;;;;;;;;;5111986;27;20263;-56
2022/04/21 00:18:55;;;;;;;0.80;0.80;;;;;;;;;;5124456;27;20217;-56
2022/04/21 00:24:44;;;;;;;0.83;0.83;;;;;;;;;;5112912;27;20777;-55
2022/04/21 00:27:31;;;;;;;1.27;0.90;;;;;;;;;;5118628;27;20665;-56
2022/04/21 00:30:18;;;;;;;1.03;1.03;;;;;;;;;;5113779;27;20258;-56
2022/04/21 00:33:05;;;;;;;0.90;0.90;;;;;;;;;;5117147;27;20606;-56
2022/04/21 00:35:52;;;;;;;1.10;1.10;;;;;;;;;;5117427;27;20212;-56
2022/04/21 00:38:39;;;;;;;1.10;1.10;;;;;;;;;;5117640;27;20300;-56
2022/04/21 00:41:28;;;;;;;1.00;1.00;;;;;;;;;;5112696;27;20259;-56
2022/04/21 00:44:14;;;;;;;1.03;0.80;;;;;;;;;;5119551;27;20232;-56
2022/04/21 00:47:05;;;;;;;1.07;1.07;;;;;;;;;;5114250;27;20203;-56
2022/04/21 00:49:52;;;;;;;0.93;0.93;;;;;;;;;;5117166;27;20212;-55
2022/04/21 00:52:40;;;;;;;1.27;1.27;;;;;;;;;;5106069;27;20303;-56
2022/04/21 00:55:27;;;;;;;1.30;1.30;;;;;;;;;;5115330;27;20288;-56
2022/04/21 00:58:16;;;;;;;1.30;1.30;;;;;;;;;;5117677;27;20210;-56
2022/04/21 01:02:46;;;;;;;1.07;1.07;;;;;;;;;;5110247;27;20308;-55
2022/04/21 01:04:10;;;;;;;1.13;1.13;;;;;;;;;;5110782;27;20206;-56
2022/04/21 01:06:57;;;;;;;1.20;1.20;;;;;;;;;;5117903;27;20208;-56
2022/04/21 01:09:44;;;;;;;1.43;1.43;;;;;;;;;;5126720;27;20342;-56
2022/04/21 01:12:32;;;;;;;1.10;1.10;;;;;;;;;;5117582;27;20660;-56
2022/04/21 01:15:20;;;;;;;1.30;1.30;;;;;;;;;;5112260;27;20675;-56
2022/04/21 01:18:09;;;;;;;1.47;1.43;;;;;;;;;;5109751;27;20691;-56
2022/04/21 01:20:57;;;;;;;1.30;1.30;;;;;;;;;;5111782;27;20602;-56
2022/04/21 01:23:44;;;;;;;1.20;1.20;;;;;;;;;;5113052;27;20215;-56
2022/04/21 01:26:35;;;;;;;1.13;1.13;;;;;;;;;;5119097;27;20295;-55
2022/04/21 01:29:22;;;;;;;0.83;0.83;;;;;;;;;;5112845;27;20213;-55
2022/04/21 01:32:09;;;;;;;1.20;1.20;;;;;;;;;;5117107;27;20313;-55
2022/04/21 01:34:56;;;;;;;1.00;1.00;;;;;;;;;;5102665;27;20204;-56
2022/04/21 01:43:53;;;;;;;1.10;1.10;;;;;;;;;;5118068;27;20238;-56
2022/04/21 01:46:41;;;;;;;1.00;1.00;;;;;;;;;;5115673;27;20213;-56
2022/04/21 01:49:28;;;;;;;1.10;1.10;;;;;;;;;;5114915;27;20212;-56
2022/04/21 01:52:15;;;;;;;1.10;1.10;;;;;;;;;;5110544;27;20263;-57
2022/04/21 01:55:04;;;;;;;0.90;0.90;;;;;;;;;;5106054;27;20284;-56
2022/04/21 01:57:51;;;;;;;0.90;0.90;;;;;;;;;;5112708;27;20288;-55
2022/04/21 02:00:37;;;;;;;0.90;0.90;;;;;;;;;;5123383;27;20312;-56
2022/04/21 02:03:24;;;;;;;0.80;0.80;;;;;;;;;;5098781;27;20633;-56
2022/04/21 02:06:13;;;;;;;1.00;1.00;;;;;;;;;;5119415;27;20255;-56
2022/04/21 02:09:00;;;;;;;0.90;0.90;;;;;;;;;;5115336;27;20630;-56
2022/04/21 02:11:49;;;;;;;0.90;0.90;;;;;;;;;;5113386;27;20236;-56
2022/04/21 02:14:35;;;;;;;1.00;1.00;;;;;;;;;;5109908;27;20207;-56
2022/04/21 02:17:25;;;;;;;1.07;1.07;;;;;;;;;;5111514;27;20208;-56
2022/04/21 02:20:14;;;;;;;0.80;0.80;;;;;;;;;;5115280;27;20196;-55
2022/04/21 02:23:01;;;;;;;0.90;0.90;;;;;;;;;;5112614;27;20210;-55
2022/04/21 02:25:48;;;;;;;1.30;1.20;;;;;;;;;;5114826;27;20286;-56
2022/04/21 02:28:38;;;;;;;1.10;1.10;;;;;;;;;;5113563;27;20648;-56
2022/04/21 02:31:26;;;;;;;0.90;0.90;;;;;;;;;;5111783;27;20590;-56
2022/04/21 02:34:13;;;;;;;1.10;1.10;;;;;;;;;;5112492;27;20241;-55
2022/04/21 02:36:59;;;;;;;0.73;0.73;;;;;;;;;;5114216;27;20251;-56
2022/04/21 02:39:46;;;;;;;0.90;0.90;;;;;;;;;;5116179;27;20340;-56
2022/04/21 02:42:33;;;;;;;0.80;0.80;;;;;;;;;;5115990;27;20394;-56
2022/04/21 02:45:22;;;;;;;1.03;1.03;;;;;;;;;;5104953;27;20271;-56
2022/04/21 02:48:10;;;;;;;0.97;0.97;;;;;;;;;;5092779;28;20217;-56
2022/04/21 02:50:57;;;;;;;0.90;0.90;;;;;;;;;;5097481;28;20318;-57
2022/04/21 02:59:54;;;;;;;1.20;1.13;;;;;;;;;;5098337;28;20318;-56
2022/04/21 03:02:42;;;;;;;1.03;1.03;;;;;;;;;;5099467;28;20326;-55
2022/04/21 03:05:30;;;;;;;0.90;0.90;;;;;;;;;;5095457;28;20334;-55
2022/04/21 03:08:16;;;;;;;1.00;1.00;;;;;;;;;;5093366;28;20316;-56
2022/04/21 03:11:03;;;;;;;0.90;0.90;;;;;;;;;;5100313;28;20287;-55
2022/04/21 03:13:50;;;;;;;1.10;0.97;;;;;;;;;;5089126;28;20204;-56
2022/04/21 03:16:37;;;;;;;1.10;1.00;;;;;;;;;;5091883;28;20695;-56
2022/04/21 03:19:26;;;;;;;1.10;1.10;;;;;;;;;;5088177;28;20285;-56
2022/04/21 03:25:18;;;;;;;1.00;1.00;;;;;;;;;;5089205;28;20276;-56
2022/04/21 03:28:05;;;;;;;1.00;1.00;;;;;;;;;;5086597;28;20265;-56
2022/04/21 03:30:52;;;;;;;0.90;0.90;;;;;;;;;;5090337;28;20655;-56
2022/04/21 03:33:39;;;;;;;0.90;0.90;;;;;;;;;;5093286;28;20664;-55
2022/04/21 03:36:27;;;;;;;0.90;0.90;;;;;;;;;;5059791;28;20299;-56
2022/04/21 03:39:15;;;;;;;1.10;1.10;;;;;;;;;;5082306;28;20274;-57
2022/04/21 03:42:02;;;;;;;1.20;1.20;;;;;;;;;;5091472;28;20691;-55
2022/04/21 03:44:49;;;;;;;1.10;1.10;;;;;;;;;;5109588;28;20317;-56
2022/04/21 03:47:36;;;;;;;1.00;1.00;;;;;;;;;;5114045;28;20211;-56
2022/04/21 03:50:23;;;;;;;1.00;1.00;;;;;;;;;;5101485;28;20552;-56
2022/04/21 03:53:11;;;;;;;1.37;1.13;;;;;;;;;;5120229;28;20225;-55
2022/04/21 03:55:58;;;;;;;1.00;1.00;;;;;;;;;;5114757;27;20348;-56
2022/04/21 03:58:45;;;;;;;1.00;1.00;;;;;;;;;;5115902;28;20285;-56
2022/04/21 04:01:32;;;;;;;1.40;0.80;;;;;;;;;;5102046;28;20314;-56
2022/04/21 04:04:19;;;;;;;0.80;0.80;;;;;;;;;;5119689;28;20219;-56
2022/04/21 04:13:16;;;;;;;1.10;1.10;;;;;;;;;;5110641;28;20209;-56
2022/04/21 04:16:03;;;;;;;1.10;1.10;;;;;;;;;;5112264;28;20211;-55
2022/04/21 04:18:51;;;;;;;0.70;0.70;;;;;;;;;;5111861;28;20264;-56
2022/04/21 04:21:38;;;;;;;1.00;1.00;;;;;;;;;;5119880;27;20237;-56
2022/04/21 04:24:25;;;;;;;1.37;1.00;;;;;;;;;;5118399;27;20257;-55
2022/04/21 04:27:13;;;;;;;0.90;0.90;;;;;;;;;;5109327;27;20563;-56
2022/04/21 04:30:00;;;;;;;1.00;1.00;;;;;;;;;;5121656;27;20673;-56
2022/04/21 04:32:47;;;;;;;1.10;1.10;;;;;;;;;;5119389;27;20211;-55
2022/04/21 04:35:34;;;;;;;1.10;1.10;;;;;;;;;;5119875;27;20220;-56
2022/04/21 04:38:21;;;;;;;0.90;0.90;;;;;;;;;;5121500;27;20239;-56
2022/04/21 04:44:10;;;;;;;1.30;1.20;;;;;;;;;;5113808;27;20291;-55
2022/04/21 04:46:56;;;;;;;1.13;1.13;;;;;;;;;;5118695;27;20238;-55
2022/04/21 04:49:43;;;;;;;1.00;1.00;;;;;;;;;;5120468;27;20210;-55
2022/04/21 04:52:30;;;;;;;0.83;0.83;;;;;;;;;;5124293;27;20605;-55
2022/04/21 04:55:17;;;;;;;1.07;1.07;;;;;;;;;;5119075;27;20262;-55
2022/04/21 04:58:04;;;;;;;0.90;0.90;;;;;;;;;;5120128;27;20797;-56
2022/04/21 05:00:52;;;;;;;1.07;1.07;;;;;;;;;;5118098;27;20380;-56
2022/04/21 05:03:39;;;;;;;1.10;1.10;;;;;;;;;;5110373;27;20295;-56
2022/04/21 05:06:26;;;;;;;1.03;1.03;;;;;;;;;;5112350;27;20285;-56
2022/04/21 05:09:14;;;;;;;0.90;0.90;;;;;;;;;;5109183;27;20241;-56
2022/04/21 05:12:02;;;;;;;1.00;1.00;;;;;;;;;;5113443;27;20734;-55
2022/04/21 05:14:49;;;;;;;1.00;1.00;;;;;;;;;;5113669;27;20201;-56
2022/04/21 05:17:38;;;;;;;1.00;1.00;;;;;;;;;;5078965;28;20206;-56
2022/04/21 05:20:26;;;;;;;1.07;1.07;;;;;;;;;;5104576;27;20289;-55
2022/04/21 05:23:16;;;;;;;1.00;1.00;;;;;;;;;;5113528;27;20358;-56
2022/04/21 05:26:03;;;;;;;1.10;1.10;;;;;;;;;;5114434;27;20269;-56
2022/04/21 05:28:51;;;;;;;1.07;1.07;;;;;;;;;;5109875;27;20213;-56
2022/04/21 05:31:38;;;;;;;1.17;1.17;;;;;;;;;;5114969;27;20241;-56
2022/04/21 05:34:28;;;;;;;1.00;1.00;;;;;;;;;;5114917;27;20219;-56
2022/04/21 05:37:15;;;;;;;2.10;1.10;;;;;;;;;;5120872;27;20288;-56
2022/04/21 05:40:03;;;;;;;1.10;1.10;;;;;;;;;;5107481;27;20256;-56
2022/04/21 05:42:54;;;;;;;0.97;0.97;;;;;;;;;;5115648;27;20338;-56
2022/04/21 05:45:42;;;;;;;1.10;1.10;;;;;;;;;;5112443;27;20235;-56
2022/04/21 05:48:29;;;;;;;1.10;1.10;;;;;;;;;;5114630;27;20197;-56
2022/04/21 05:51:18;;;;;;;1.13;1.13;;;;;;;;;;5115941;27;20427;-57
2022/04/21 05:54:07;;;;;;;1.17;1.17;;;;;;;;;;5118699;27;20687;-56
2022/04/21 05:56:55;;;;;;;1.37;1.17;;;;;;;;;;5119960;27;20290;-56
2022/04/21 05:59:42;;;;;;;1.03;1.03;;;;;;;;;;5105293;27;20221;-56
2022/04/21 06:02:30;;;;;;;1.02;1.02;;;;;;;;;;5110903;27;20316;-56
2022/04/21 06:05:16;;;;;;;1.17;1.10;;;;;;;;;;5108027;27;20212;-56
2022/04/21 06:08:06;;;;;;;1.05;1.00;;;;;;;;;;5114273;27;20204;-56
2022/04/21 06:10:55;;;;;;;1.17;1.17;;;;;;;;;;5117279;27;20211;-56
2022/04/21 06:13:42;;;;;;;1.35;1.13;;;;;;;;;;5110941;27;20196;-56
2022/04/21 06:16:29;;;;;;;1.20;1.20;;;;;;;;;;5126281;27;20707;-56
2022/04/21 06:19:16;;;;;;;1.20;1.20;;;;;;;;;;5108825;27;20667;-57
2022/04/21 06:22:03;;;;;;;1.08;1.08;;;;;;;;;;5119973;27;20303;-56
2022/04/21 06:24:52;;;;;;;1.05;1.05;;;;;;;;;;5114718;27;20606;-54
2022/04/21 06:27:38;;;;;;;0.88;0.88;;;;;;;;;;5116635;27;20859;-55
2022/04/21 06:30:25;;;;;;;1.08;1.08;;;;;;;;;;5112970;27;20197;-54
2022/04/21 06:33:12;;;;;;;0.90;0.90;;;;;;;;;;5114390;27;20201;-55
2022/04/21 06:35:59;;;;;;;1.25;1.25;;;;;;;;;;5114345;27;20213;-55
2022/04/21 06:38:46;;;;;;;1.02;1.02;;;;;;;;;;5101028;27;20201;-54
2022/04/21 06:41:35;;;;;;;0.98;0.98;;;;;;;;;;5112771;27;20295;-55
2022/04/21 06:50:30;;;;;;;1.17;1.15;;;;;;;;;;5102602;27;20210;-55
2022/04/21 06:53:17;;;;;;;1.10;1.10;;;;;;;;;;5114305;27;20277;-55
2022/04/21 06:56:05;;;;;;;0.90;0.90;;;;;;;;;;5119077;27;20265;-55
2022/04/21 06:58:53;;;;;;;0.98;0.98;;;;;;;;;;5115387;27;20661;-55
2022/04/21 07:01:41;;;;;;;0.90;0.90;;;;;;;;;;5114801;27;20746;-55
2022/04/21 07:04:28;;;;;;;1.00;1.00;;;;;;;;;;5114177;27;20217;-54
2022/04/21 07:07:15;;;;;;;0.90;0.90;;;;;;;;;;5118561;28;20300;-53
2022/04/21 07:10:02;;;;;;;1.10;1.10;;;;;;;;;;5114534;28;20250;-53
2022/04/21 07:12:49;;;;;;;0.85;0.85;;;;;;;;;;5123206;28;20234;-54
2022/04/21 07:15:40;;;;;;;0.93;0.93;;;;;;;;;;5109531;28;20797;-54
2022/04/21 07:18:27;;;;;;;0.80;0.80;;;;;;;;;;5106116;28;20214;-54
2022/04/21 07:21:14;;;;;;;0.95;0.95;;;;;;;;;;5113118;28;20321;-54
2022/04/21 07:24:01;;;;;;;0.80;0.80;;;;;;;;;;5116658;28;20717;-54
2022/04/21 07:26:48;;;;;;;0.80;0.80;;;;;;;;;;5118508;28;20288;-55
2022/04/21 07:29:35;;;;;;;0.77;0.77;;;;;;;;;;5111867;28;20347;-55
2022/04/21 07:32:23;;;;;;;1.00;1.00;;;;;;;;;;5113313;28;20292;-57
2022/04/21 07:35:11;;;;;;;1.00;1.00;;;;;;;;;;5105976;28;20355;-56
2022/04/21 07:37:58;;;;;;;0.90;0.90;;;;;;;;;;5117121;28;20561;-57
2022/04/21 07:40:47;;;;;;;0.90;0.90;;;;;;;;;;5116068;28;20232;-56
2022/04/21 07:43:34;;;;;;;0.90;0.90;;;;;;;;;;5113021;28;20260;-56
2022/04/21 07:46:21;;;;;;;0.80;0.80;;;;;;;;;;5118798;28;20287;-56
2022/04/21 07:55:27;;;;;;;0.75;0.75;;;;;;;;;;5121040;27;20262;-58
2022/04/21 07:58:14;;;;;;;0.80;0.80;;;;;;;;;;5121029;27;20253;-56
2022/04/21 08:01:01;;;;;;;0.90;0.90;;;;;;;;;;5115769;27;20252;-55
2022/04/21 08:03:48;;;;;;;0.95;0.95;;;;;;;;;;5119840;27;20289;-55
2022/04/21 08:06:36;;;;;;;0.80;0.80;;;;;;;;;;5118689;27;20672;-55
2022/04/21 08:09:23;;;;;;;0.70;0.70;;;;;;;;;;5109118;28;20233;-55
2022/04/21 08:12:11;;;;;;;0.77;0.77;;;;;;;;;;5094402;27;20288;-55
2022/04/21 08:14:57;;;;;;;0.80;0.80;;;;;;;;;;5121167;27;20296;-56
2022/04/21 08:17:44;;;;;;;0.80;0.80;;;;;;;;;;5117801;27;20581;-55
2022/04/21 08:20:33;;;;;;;0.80;0.80;;;;;;;;;;5114018;27;20339;-55
2022/04/21 08:23:21;;;;;;;0.85;0.85;;;;;;;;;;5114643;27;20225;-56
2022/04/21 08:32:41;;;;;;;0.95;0.80;;;;;;;;;;5112339;27;20770;-54
2022/04/21 08:35:27;;;;;;;0.82;0.82;;;;;;;;;;5120342;27;20431;-53
2022/04/21 08:38:15;;;;;;;0.77;0.77;;;;;;;;;;5117048;27;20280;-54
2022/04/21 08:41:07;;;;;;;0.93;0.93;;;;;;;;;;5121382;27;20283;-54
2022/04/21 08:43:55;;;;;;;0.70;0.70;;;;;;;;;;5111404;27;20274;-53
2022/04/21 08:46:43;;;;;;;0.88;0.88;;;;;;;;;;5119506;27;20341;-54
2022/04/21 08:49:33;;;;;;;0.70;0.70;;;;;;;;;;5124235;27;20292;-53
2022/04/21 08:52:20;;;;;;;1.88;0.90;;;;;;;;;;5122737;27;20263;-57
2022/04/21 08:55:09;;;;;;;1.17;0.82;;;;;;;;;;5114690;27;20274;-53
2022/04/21 08:57:57;;;;;;;0.80;0.80;;;;;;;;;;5110852;27;20222;-56
2022/04/21 09:00:44;;;;;;;0.93;0.93;;;;;;;;;;5111789;27;20214;-56
2022/04/21 09:03:33;;;;;;;0.77;0.77;;;;;;;;;;5113093;27;20220;-56
2022/04/21 09:06:21;;;;;;;0.95;0.95;;;;;;;;;;5110351;27;20209;-56
2022/04/21 09:09:16;;;;;;;0.73;0.73;;;;;;;;;;5123077;27;20228;-55
2022/04/21 09:12:03;;;;;;;0.70;0.70;;;;;;;;;;5116286;27;20219;-56
2022/04/21 09:14:51;;;;;;;0.70;0.70;;;;;;;;;;5109710;27;20258;-56
2022/04/21 09:17:40;;;;;;;1.00;1.00;;;;;;;;;;5115927;27;20307;-56
2022/04/21 09:20:30;;;;;;;0.73;0.73;;;;;;;;;;5123286;27;20522;-56
2022/04/21 09:23:17;;;;;;;1.55;0.85;;;;;;;;;;5113198;27;20218;-56
2022/04/21 09:26:09;;;;;;;0.88;0.88;;;;;;;;;;5116366;27;20577;-56
2022/04/21 09:28:57;;;;;;;1.00;0.95;;;;;;;;;;5120902;27;20284;-56
2022/04/21 09:31:45;;;;;;;0.70;0.70;;;;;;;;;;5114470;27;20729;-55
2022/04/21 09:34:32;;;;;;;0.80;0.80;;;;;;;;;;5117081;27;20237;-56
2022/04/21 09:37:20;;;;;;;0.88;0.88;;;;;;;;;;5118125;27;20330;-55
2022/04/21 09:40:11;;;;;;;0.85;0.85;;;;;;;;;;5113910;27;20209;-56
2022/04/21 09:43:00;;;;;;;0.70;0.70;;;;;;;;;;5116373;27;20605;-56
2022/04/21 09:48:54;;;;;;;1.58;0.80;;;;;;;;;;5110782;27;20201;-56
2022/04/21 09:51:42;;;;;;;0.88;0.88;;;;;;;;;;5119020;27;20333;-55
2022/04/21 09:54:30;;;;;;;0.80;0.80;;;;;;;;;;5107863;27;20205;-56
2022/04/21 09:57:29;;;;;;;0.70;0.70;;;;;;;;;;5106084;27;20327;-56
2022/04/21 10:00:20;;;;;;;1.08;1.00;;;;;;;;;;5115629;27;20696;-55
2022/04/21 10:03:07;;;;;;;1.05;0.73;;;;;;;;;;5104567;27;20241;-55
2022/04/21 10:05:56;;;;;;;1.00;0.93;;;;;;;;;;5110456;27;20213;-56
2022/04/21 10:08:44;;;;;;;1.33;0.77;;;;;;;;;;5112436;27;20568;-55
2022/04/21 10:11:31;;;;;;;0.70;0.70;;;;;;;;;;5114294;27;20227;-56
2022/04/21 10:14:19;;;;;;;0.80;0.80;;;;;;;;;;5088554;27;20209;-55
2022/04/21 10:17:09;;;;;;;0.80;0.80;;;;;;;;;;5081533;28;20327;-54
2022/04/21 10:19:57;;;;;;;0.80;0.80;;;;;;;;;;5094536;28;20672;-55
2022/04/21 10:22:47;;;;;;;1.00;1.00;;;;;;;;;;5111375;27;20290;-55
2022/04/21 10:25:35;;;;;;;0.90;0.82;;;;;;;;;;5111776;27;20675;-55
2022/04/21 10:28:39;;;;;;;0.65;0.65;;;;;;;;;;5115165;27;20202;-55
2022/04/21 10:31:30;;;;;;;0.80;0.80;;;;;;;;;;5116062;27;20201;-55
2022/04/21 10:34:32;;;;;;;0.50;0.50;;;;;;;;;;5122929;27;20299;-55
2022/04/21 10:37:21;;;;;;;0.65;0.65;;;;;;;;;;5112718;27;20775;-55
2022/04/21 10:40:10;;;;;;;0.55;0.55;;;;;;;;;;5117228;27;20247;-55
2022/04/21 10:43:03;;;;;;;0.50;0.50;;;;;;;;;;5115194;27;20678;-55
2022/04/21 10:46:18;;;;;;;0.70;0.70;;;;;;;;;;5092768;27;20235;-55
2022/04/21 10:49:05;;;;;;;0.82;0.82;;;;;;;;;;5096538;27;20605;-55
2022/04/21 10:58:53;;;;;;;0.63;0.63;;;;;;;;;;5109282;27;20207;-56
2022/04/21 11:01:53;;;;;;;0.70;0.70;;;;;;;;;;5112492;27;20214;-56
2022/04/21 11:04:40;;;;;;;0.68;0.68;;;;;;;;;;5104013;27;20223;-55
2022/04/21 11:07:51;;;;;;;0.47;0.47;;;;;;;;;;5118045;27;20212;-55
2022/04/21 11:10:43;;;;;;;0.60;0.60;;;;;;;;;;5114415;28;20202;-55
2022/04/21 11:13:42;;;;;;;0.55;0.55;;;;;;;;;;5113235;28;20205;-55
2022/04/21 11:16:48;;;;;;;0.68;0.60;;;;;;;;;;5108009;28;20303;-55
2022/04/21 11:19:45;;;;;;;0.60;0.60;;;;;;;;;;5117612;28;20242;-55
2022/04/21 11:22:40;;;;;;;0.80;0.80;;;;;;;;;;5115291;28;20199;-54
2022/04/21 11:25:31;;;;;;;1.45;0.80;;;;;;;;;;5111375;28;20318;-55
2022/04/21 11:28:25;;;;;;;0.70;0.70;;;;;;;;;;5107445;28;20252;-55
2022/04/21 11:31:13;;;;;;;0.60;0.60;;;;;;;;;;5111435;27;20364;-55
2022/04/21 11:34:02;;;;;;;0.70;0.70;;;;;;;;;;5117584;27;20206;-56
2022/04/21 11:36:49;;;;;;;0.73;0.70;;;;;;;;;;5111334;27;20238;-55
2022/04/21 11:39:38;;;;;;;0.65;0.65;;;;;;;;;;5114737;27;20610;-56
2022/04/21 11:42:27;;;;;;;0.60;0.60;;;;;;;;;;5095365;27;20662;-55
2022/04/21 11:45:20;;;;;;;0.65;0.65;;;;;;;;;;5090492;28;20236;-56
2022/04/21 11:48:13;;;;;;;0.82;0.82;;;;;;;;;;5078007;28;20684;-57
2022/04/21 11:51:00;;;;;;;0.60;0.60;;;;;;;;;;5094848;28;20209;-56
2022/04/21 11:53:47;;;;;;;0.65;0.65;;;;;;;;;;5093845;28;20227;-55
2022/04/21 11:56:34;;;;;;;0.73;0.73;;;;;;;;;;5092445;28;20198;-56
2022/04/21 11:59:36;;;;;;;0.52;0.52;;;;;;;;;;5085857;28;20319;-55
2022/04/21 12:08:35;;;;;;;0.60;0.60;;;;;;;;;;5086174;28;20207;-56
2022/04/21 12:11:23;;;;;;;1.10;1.08;;;;;;;;;;5089479;28;20210;-57
2022/04/21 12:14:10;;;;;;;0.68;0.68;;;;;;;;;;5086043;28;20639;-56
2022/04/21 12:16:58;;;;;;;0.45;0.45;;;;;;;;;;5084675;28;20300;-56
2022/04/21 12:19:46;;;;;;;0.82;0.82;;;;;;;;;;5086186;28;20295;-56
2022/04/21 12:22:33;;;;;;;0.57;0.57;;;;;;;;;;5085886;28;20290;-56
2022/04/21 12:25:29;;;;;;;0.82;0.82;;;;;;;;;;5087716;28;20226;-56
2022/04/21 12:28:16;;;;;;;0.70;0.70;;;;;;;;;;5087838;28;20286;-57
2022/04/21 12:31:07;;;;;;;0.40;0.40;;;;;;;;;;5089908;28;20296;-56
2022/04/21 12:33:54;;;;;;;0.80;0.80;;;;;;;;;;5089372;28;20331;-56
2022/04/21 12:36:52;;;;;;;0.60;0.60;;;;;;;;;;5085980;28;20246;-56
2022/04/21 12:39:39;;;;;;;1.98;0.80;;;;;;;;;;5087834;28;20211;-56
2022/04/21 12:42:27;;;;;;;0.85;0.85;;;;;;;;;;5085523;28;20279;-56
2022/04/21 12:45:14;;;;;;;0.70;0.70;;;;;;;;;;5091718;28;20238;-55
2022/04/21 12:48:02;;;;;;;0.77;0.77;;;;;;;;;;5089372;28;20203;-55
2022/04/21 12:50:49;;;;;;;0.70;0.70;;;;;;;;;;5101063;28;20204;-56
2022/04/21 12:53:37;;;;;;;0.60;0.60;;;;;;;;;;5104142;28;20237;-56
2022/04/21 12:56:34;;;;;;;2.10;0.57;;;;;;;;;;5092204;28;20581;-55
2022/04/21 12:59:22;;;;;;;0.73;0.73;;;;;;;;;;5091505;28;20213;-55
2022/04/21 13:02:09;;;;;;;2.03;0.82;;;;;;;;;;5091638;28;20656;-55
2022/04/21 13:04:57;;;;;;;0.60;0.60;;;;;;;;;;5088605;28;20259;-55
2022/04/21 13:07:44;;;;;;;0.70;0.70;;;;;;;;;;5086685;28;20217;-55
2022/04/21 13:10:32;;;;;;;1.45;0.70;;;;;;;;;;5092062;28;20202;-55
2022/04/21 13:13:20;;;;;;;1.45;0.70;;;;;;;;;;5098889;28;20358;-55
2022/04/21 13:16:06;;;;;;;0.65;0.65;;;;;;;;;;5095985;28;20255;-55
2022/04/21 13:18:55;;;;;;;0.50;0.50;;;;;;;;;;5093852;28;20212;-55
2022/04/21 13:21:55;;;;;;;0.70;0.70;;;;;;;;;;5101490;28;20728;-54
2022/04/21 13:24:42;;;;;;;0.70;0.70;;;;;;;;;;5095519;28;20224;-55
2022/04/21 13:27:32;;;;;;;0.77;0.77;;;;;;;;;;5090011;28;20349;-55
2022/04/21 13:30:19;;;;;;;1.33;0.73;;;;;;;;;;5092662;28;20202;-55
2022/04/21 13:33:23;;;;;;;0.70;0.70;;;;;;;;;;5097476;28;20217;-56
2022/04/21 13:36:10;;;;;;;0.70;0.70;;;;;;;;;;5095545;28;20207;-55
2022/04/21 13:38:59;;;;;;;0.67;0.67;;;;;;;;;;5096580;28;20699;-56
2022/04/21 13:41:46;;;;;;;0.83;0.83;;;;;;;;;;5094075;28;20290;-56
2022/04/21 13:44:35;;;;;;;0.87;0.87;;;;;;;;;;5106471;27;20232;-56
2022/04/21 13:47:21;;;;;;;0.83;0.83;;;;;;;;;;5120296;27;20688;-56
2022/04/21 13:50:09;;;;;;;1.83;0.90;;;;;;;;;;5116645;27;20348;-56
2022/04/21 13:52:56;;;;;;;2.10;1.20;;;;;;;;;;5114999;27;20330;-56
2022/04/21 13:55:43;;;;;;;1.70;1.03;;;;;;;;;;5107989;27;20342;-56
2022/04/21 13:58:30;;;;;;;0.77;0.73;;;;;;;;;;5114616;27;20247;-56
2022/04/21 14:01:20;;;;;;;0.93;0.93;;;;;;;;;;5110850;27;20567;-56
2022/04/21 14:04:07;;;;;;;1.70;0.90;;;;;;;;;;5107441;28;20596;-56
2022/04/21 14:06:55;;;;;;;1.17;0.83;;;;;;;;;;5106202;27;20766;-56
2022/04/21 14:09:42;;;;;;;0.83;0.83;;;;;;;;;;5107917;27;20212;-56
2022/04/21 14:12:30;;;;;;;1.73;0.90;;;;;;;;;;5120867;27;20209;-56
2022/04/21 14:15:16;;;;;;;1.60;1.10;;;;;;;;;;5114806;27;20212;-56
2022/04/21 14:18:05;;;;;;;1.00;1.00;;;;;;;;;;5111321;27;20273;-56
2022/04/21 14:20:52;;;;;;;1.30;1.20;;;;;;;;;;5111515;27;20333;-56
2022/04/21 14:23:40;;;;;;;1.77;1.20;;;;;;;;;;5106600;27;20201;-56
2022/04/21 14:26:28;;;;;;;1.40;1.30;;;;;;;;;;5109893;27;20204;-56
2022/04/21 14:29:15;;;;;;;2.53;1.20;;;;;;;;;;5109297;27;20205;-56
2022/04/21 14:32:02;;;;;;;1.20;1.20;;;;;;;;;;5109407;27;20318;-56
2022/04/21 14:34:50;;;;;;;1.17;1.00;;;;;;;;;;5108494;27;20205;-56
2022/04/21 14:46:51;;;;;;;0.90;0.90;;;;;;;;;;5088758;28;20233;-56
2022/04/21 14:49:37;;;;;;;1.83;1.53;;;;;;;;;;5085541;28;20228;-56
2022/04/21 14:52:27;;;;;;;2.20;1.07;;;;;;;;;;5081139;28;20228;-56
2022/04/21 14:55:14;;;;;;;1.43;1.27;;;;;;;;;;5085376;28;20252;-56
2022/04/21 14:58:01;;;;;;;1.37;1.27;;;;;;;;;;5084316;28;20257;-55
2022/04/21 15:00:48;;;;;;;1.27;1.17;;;;;;;;;;5088705;28;20205;-55
2022/04/21 15:03:37;;;;;;;1.13;1.13;;;;;;;;;;5088897;28;20583;-55
2022/04/21 15:06:24;;;;;;;0.90;0.90;;;;;;;;;;5092544;28;20364;-55
2022/04/21 15:09:12;;;;;;;1.37;1.27;;;;;;;;;;5084828;28;20249;-56
2022/04/21 15:11:59;;;;;;;1.23;1.10;;;;;;;;;;5092298;28;20319;-56
2022/04/21 15:14:46;;;;;;;1.47;0.90;;;;;;;;;;5090813;28;20203;-56
2022/04/21 15:17:33;;;;;;;1.00;0.90;;;;;;;;;;5083908;28;20226;-62
2022/04/21 15:20:20;;;;;;;1.57;1.20;;;;;;;;;;5081575;28;20285;-56
2022/04/21 15:23:11;;;;;;;1.07;1.00;;;;;;;;;;5095690;28;20689;-56
2022/04/21 15:25:59;;;;;;;1.03;1.03;;;;;;;;;;5092334;28;20246;-56
2022/04/21 15:28:47;;;;;;;1.13;1.03;;;;;;;;;;5090328;28;20206;-56
2022/04/21 15:31:34;;;;;;;0.70;0.70;;;;;;;;;;5086733;28;20585;-55
2022/04/21 15:34:21;;;;;;;1.10;0.93;;;;;;;;;;5085779;28;20570;-56
2022/04/21 15:37:08;;;;;;;0.80;0.80;;;;;;;;;;5089495;28;20276;-56
2022/04/21 15:39:55;;;;;;;1.20;1.17;;;;;;;;;;5086033;28;20207;-56
2022/04/21 15:42:44;;;;;;;1.03;0.90;;;;;;;;;;5090045;28;20252;-56
2022/04/21 15:45:31;;;;;;;0.60;0.60;;;;;;;;;;5093592;28;21775;-56
2022/04/21 15:48:18;;;;;;;0.57;0.57;;;;;;;;;;5105653;28;20205;-56
2022/04/21 15:51:06;;;;;;;0.63;0.63;;;;;;;;;;5104964;28;20777;-55
2022/04/21 16:00:03;;;;;;;0.70;0.70;;;;;;;;;;5106934;28;20214;-56
2022/04/21 16:02:51;;;;;;;0.70;0.70;;;;;;;;;;5110021;28;20304;-56
2022/04/21 16:05:40;;;;;;;0.77;0.77;;;;;;;;;;5099445;28;20659;-56
2022/04/21 16:08:27;;;;;;;0.67;0.67;;;;;;;;;;5110568;27;20211;-56
2022/04/21 16:11:14;;;;;;;0.93;0.93;;;;;;;;;;5104205;28;20200;-56
2022/04/21 16:14:01;;;;;;;0.83;0.83;;;;;;;;;;5104488;28;20281;-56
2022/04/21 16:16:49;;;;;;;0.80;0.80;;;;;;;;;;5115020;27;20251;-57
2022/04/21 16:19:36;;;;;;;0.60;0.60;;;;;;;;;;5113890;27;20689;-56
2022/04/21 16:22:23;;;;;;;0.57;0.57;;;;;;;;;;5114284;27;20594;-56
2022/04/21 16:25:11;;;;;;;0.70;0.70;;;;;;;;;;5120845;27;20725;-56
2022/04/21 16:27:58;;;;;;;0.80;0.80;;;;;;;;;;5117999;27;20231;-56
2022/04/21 16:30:45;;;;;;;0.60;0.60;;;;;;;;;;5114925;27;20628;-56
2022/04/21 16:33:34;;;;;;;0.60;0.60;;;;;;;;;;5106111;27;20600;-56
2022/04/21 16:36:21;;;;;;;0.60;0.60;;;;;;;;;;5115574;27;20528;-56
2022/04/21 16:39:08;;;;;;;0.43;0.43;;;;;;;;;;5114045;27;20814;-56
2022/04/21 16:41:55;;;;;;;0.67;0.63;;;;;;;;;;5111480;27;20624;-64
2022/04/21 16:44:42;;;;;;;0.40;0.40;;;;;;;;;;5116995;27;20327;-57
2022/04/21 16:47:29;;;;;;;0.50;0.50;;;;;;;;;;5117303;27;20273;-56
2022/04/21 16:50:18;;;;;;;0.70;0.70;;;;;;;;;;5112906;27;20748;-56
2022/04/21 16:53:05;;;;;;;0.87;0.80;;;;;;;;;;5116721;27;20268;-57
2022/04/21 16:55:52;;;;;;;0.70;0.70;;;;;;;;;;5120445;27;20296;-56
2022/04/21 16:58:39;;;;;;;0.70;0.70;;;;;;;;;;5114497;27;20203;-56
2022/04/21 17:04:33;;;;;;;1.00;0.80;;;;;;;;;;5108653;27;20204;-57
2022/04/21 17:07:21;;;;;;;0.70;0.70;;;;;;;;;;5114926;27;20206;-57
2022/04/21 17:10:09;;;;;;;0.60;0.60;;;;;;;;;;5111408;27;20247;-57
2022/04/21 17:12:56;;;;;;;0.80;0.80;;;;;;;;;;5114131;27;20292;-57
2022/04/21 17:15:43;;;;;;;0.50;0.50;;;;;;;;;;5106440;27;20604;-57
2022/04/21 17:18:30;;;;;;;0.60;0.50;;;;;;;;;;5111483;27;20279;-56
2022/04/21 17:21:17;;;;;;;0.60;0.60;;;;;;;;;;5110162;27;20669;-56
2022/04/21 17:24:06;;;;;;;0.60;0.60;;;;;;;;;;5118500;27;20685;-56
2022/04/21 17:26:53;;;;;;;0.80;0.73;;;;;;;;;;5107708;27;20243;-56
2022/04/21 17:29:40;;;;;;;0.50;0.50;;;;;;;;;;5108352;27;20203;-56
2022/04/21 17:32:27;;;;;;;0.80;0.80;;;;;;;;;;5114521;27;20804;-56
2022/04/21 17:35:14;;;;;;;0.47;0.47;;;;;;;;;;5114297;27;20227;-57
2022/04/21 17:38:01;;;;;;;0.60;0.60;;;;;;;;;;5112414;27;20293;-56
2022/04/21 17:40:50;;;;;;;0.67;0.67;;;;;;;;;;5113995;27;20258;-56
2022/04/21 17:43:37;;;;;;;0.67;0.67;;;;;;;;;;5112724;27;20220;-56
2022/04/21 17:46:24;;;;;;;0.50;0.50;;;;;;;;;;5108475;27;20368;-56
2022/04/21 17:49:11;;;;;;;0.80;0.77;;;;;;;;;;5114184;27;20282;-55
2022/04/21 17:51:58;;;;;;;0.80;0.77;;;;;;;;;;5110831;27;20286;-56
2022/04/21 17:54:45;;;;;;;0.60;0.60;;;;;;;;;;5105999;27;20332;-56
2022/04/21 17:57:33;;;;;;;1.23;0.60;;;;;;;;;;5107287;27;20332;-59
2022/04/21 18:00:20;;;;;;;0.80;0.80;;;;;;;;;;5106197;27;20294;-55
2022/04/21 18:03:08;;;;;;;0.60;0.60;;;;;;;;;;5109057;27;20238;-56
2022/04/21 18:05:54;;;;;;;0.70;0.70;;;;;;;;;;5108658;27;20214;-56
2022/04/21 18:08:41;;;;;;;0.57;0.57;;;;;;;;;;5108465;27;20282;-56
2022/04/21 18:11:28;;;;;;;0.60;0.60;;;;;;;;;;5110301;27;20683;-56